sensor_id;sensor_type;location;lat;lon;timestamp;P1;durP1;ratioP1;P2;durP2;ratioP2
69985;SDS011;57328;52.054;5.294;2023-11-21T00:02:26;69.15;;;9.75;;
69985;SDS011;57328;52.054;5.294;2023-11-21T00:04:56;81.90;;;11.07;;
69985;SDS011;57328;52.054;5.294;2023-11-21T00:07:23;84.22;;;10.43;;
69985;SDS011;57328;52.054;5.294;2023-11-21T00:09:50;119.82;;;10.55;;
69985;SDS011;57328;52.054;5.294;2023-11-21T00:12:17;80.95;;;10.20;;
69985;SDS011;57328;52.054;5.294;2023-11-21T00:14:45;108.40;;;10.43;;
69985;SDS011;57328;52.054;5.294;2023-11-21T00:17:12;77.78;;;10.35;;
69985;SDS011;57328;52.054;5.294;2023-11-21T00:19:39;81.43;;;9.05;;
69985;SDS011;57328;52.054;5.294;2023-11-21T00:22:09;106.57;;;9.95;;
69985;SDS011;57328;52.054;5.294;2023-11-21T00:24:36;74.13;;;9.50;;
69985;SDS011;57328;52.054;5.294;2023-11-21T00:27:03;36.47;;;8.40;;
69985;SDS011;57328;52.054;5.294;2023-11-21T00:29:30;64.10;;;8.65;;
69985;SDS011;57328;52.054;5.294;2023-11-21T00:31:58;71.18;;;9.45;;
69985;SDS011;57328;52.054;5.294;2023-11-21T00:34:26;77.75;;;9.40;;
69985;SDS011;57328;52.054;5.294;2023-11-21T00:36:53;103.90;;;10.27;;
69985;SDS011;57328;52.054;5.294;2023-11-21T00:39:20;101.68;;;10.27;;
69985;SDS011;57328;52.054;5.294;2023-11-21T00:41:47;103.25;;;10.35;;
69985;SDS011;57328;52.054;5.294;2023-11-21T00:44:15;84.53;;;9.60;;
69985;SDS011;57328;52.054;5.294;2023-11-21T00:46:42;102.80;;;8.93;;
69985;SDS011;57328;52.054;5.294;2023-11-21T00:49:09;75.68;;;9.57;;
69985;SDS011;57328;52.054;5.294;2023-11-21T00:51:36;45.90;;;8.10;;
69985;SDS011;57328;52.054;5.294;2023-11-21T00:54:04;52.50;;;8.43;;
69985;SDS011;57328;52.054;5.294;2023-11-21T00:56:31;60.05;;;8.60;;
69985;SDS011;57328;52.054;5.294;2023-11-21T00:58:58;76.55;;;9.45;;
69985;SDS011;57328;52.054;5.294;2023-11-21T01:01:26;82.38;;;8.50;;
69985;SDS011;57328;52.054;5.294;2023-11-21T01:03:53;77.78;;;9.20;;
69985;SDS011;57328;52.054;5.294;2023-11-21T01:06:22;70.35;;;8.88;;
69985;SDS011;57328;52.054;5.294;2023-11-21T01:08:49;79.47;;;9.15;;
69985;SDS011;57328;52.054;5.294;2023-11-21T01:11:16;79.85;;;9.10;;
69985;SDS011;57328;52.054;5.294;2023-11-21T01:13:43;65.88;;;8.38;;
69985;SDS011;57328;52.054;5.294;2023-11-21T01:16:11;81.97;;;9.38;;
69985;SDS011;57328;52.054;5.294;2023-11-21T01:18:38;59.63;;;7.88;;
69985;SDS011;57328;52.054;5.294;2023-11-21T01:21:05;36.80;;;7.50;;
69985;SDS011;57328;52.054;5.294;2023-11-21T01:23:33;59.38;;;7.70;;
69985;SDS011;57328;52.054;5.294;2023-11-21T01:26:01;48.75;;;7.65;;
69985;SDS011;57328;52.054;5.294;2023-11-21T01:28:29;61.55;;;7.57;;
69985;SDS011;57328;52.054;5.294;2023-11-21T01:30:56;35.55;;;7.20;;
69985;SDS011;57328;52.054;5.294;2023-11-21T01:33:24;57.58;;;8.57;;
69985;SDS011;57328;52.054;5.294;2023-11-21T01:35:51;71.60;;;8.02;;
69985;SDS011;57328;52.054;5.294;2023-11-21T01:38:22;25.33;;;7.25;;
69985;SDS011;57328;52.054;5.294;2023-11-21T01:40:49;48.90;;;7.28;;
69985;SDS011;57328;52.054;5.294;2023-11-21T01:43:16;28.70;;;6.57;;
69985;SDS011;57328;52.054;5.294;2023-11-21T01:45:43;55.92;;;8.23;;
69985;SDS011;57328;52.054;5.294;2023-11-21T01:48:14;111.75;;;10.23;;
69985;SDS011;57328;52.054;5.294;2023-11-21T01:50:43;38.88;;;7.57;;
69985;SDS011;57328;52.054;5.294;2023-11-21T01:53:11;37.15;;;8.35;;
69985;SDS011;57328;52.054;5.294;2023-11-21T01:55:40;33.40;;;7.75;;
69985;SDS011;57328;52.054;5.294;2023-11-21T01:58:08;52.38;;;7.93;;
69985;SDS011;57328;52.054;5.294;2023-11-21T02:00:35;55.22;;;8.10;;
69985;SDS011;57328;52.054;5.294;2023-11-21T02:05:33;33.58;;;7.47;;
69985;SDS011;57328;52.054;5.294;2023-11-21T02:08:00;19.35;;;7.35;;
69985;SDS011;57328;52.054;5.294;2023-11-21T02:10:28;26.10;;;7.85;;
69985;SDS011;57328;52.054;5.294;2023-11-21T02:12:57;16.15;;;7.15;;
69985;SDS011;57328;52.054;5.294;2023-11-21T02:15:26;21.52;;;7.70;;
69985;SDS011;57328;52.054;5.294;2023-11-21T02:17:55;17.40;;;7.30;;
69985;SDS011;57328;52.054;5.294;2023-11-21T02:20:24;16.75;;;8.23;;
69985;SDS011;57328;52.054;5.294;2023-11-21T02:22:53;18.52;;;7.30;;
69985;SDS011;57328;52.054;5.294;2023-11-21T02:25:28;19.48;;;7.93;;
69985;SDS011;57328;52.054;5.294;2023-11-21T02:27:56;16.20;;;7.28;;
69985;SDS011;57328;52.054;5.294;2023-11-21T02:30:23;15.27;;;7.03;;
69985;SDS011;57328;52.054;5.294;2023-11-21T02:33:00;17.58;;;6.68;;
69985;SDS011;57328;52.054;5.294;2023-11-21T02:37:57;16.77;;;7.35;;
69985;SDS011;57328;52.054;5.294;2023-11-21T02:40:25;15.70;;;7.05;;
69985;SDS011;57328;52.054;5.294;2023-11-21T02:42:53;15.13;;;7.35;;
69985;SDS011;57328;52.054;5.294;2023-11-21T02:45:20;15.85;;;7.10;;
69985;SDS011;57328;52.054;5.294;2023-11-21T02:47:48;15.35;;;7.78;;
69985;SDS011;57328;52.054;5.294;2023-11-21T02:50:16;14.38;;;7.22;;
69985;SDS011;57328;52.054;5.294;2023-11-21T02:52:45;16.45;;;7.63;;
69985;SDS011;57328;52.054;5.294;2023-11-21T02:55:13;15.45;;;7.88;;
69985;SDS011;57328;52.054;5.294;2023-11-21T02:57:40;14.90;;;7.35;;
69985;SDS011;57328;52.054;5.294;2023-11-21T03:00:08;16.92;;;7.43;;
69985;SDS011;57328;52.054;5.294;2023-11-21T03:02:39;16.63;;;7.55;;
69985;SDS011;57328;52.054;5.294;2023-11-21T03:05:07;16.33;;;7.80;;
69985;SDS011;57328;52.054;5.294;2023-11-21T03:07:38;15.07;;;7.20;;
69985;SDS011;57328;52.054;5.294;2023-11-21T03:10:06;17.33;;;7.60;;
69985;SDS011;57328;52.054;5.294;2023-11-21T03:12:36;16.45;;;7.60;;
69985;SDS011;57328;52.054;5.294;2023-11-21T03:15:05;16.30;;;7.28;;
69985;SDS011;57328;52.054;5.294;2023-11-21T03:20:03;15.07;;;6.75;;
69985;SDS011;57328;52.054;5.294;2023-11-21T03:22:31;14.98;;;7.30;;
69985;SDS011;57328;52.054;5.294;2023-11-21T03:24:59;16.98;;;6.88;;
69985;SDS011;57328;52.054;5.294;2023-11-21T03:27:26;17.63;;;7.50;;
69985;SDS011;57328;52.054;5.294;2023-11-21T03:29:53;15.25;;;7.00;;
69985;SDS011;57328;52.054;5.294;2023-11-21T03:32:21;16.95;;;7.50;;
69985;SDS011;57328;52.054;5.294;2023-11-21T03:34:55;20.33;;;7.55;;
69985;SDS011;57328;52.054;5.294;2023-11-21T03:37:23;16.80;;;7.72;;
69985;SDS011;57328;52.054;5.294;2023-11-21T03:39:51;19.20;;;7.13;;
69985;SDS011;57328;52.054;5.294;2023-11-21T03:42:18;16.45;;;7.18;;
69985;SDS011;57328;52.054;5.294;2023-11-21T03:44:45;15.57;;;7.40;;
69985;SDS011;57328;52.054;5.294;2023-11-21T03:47:12;17.13;;;7.10;;
69985;SDS011;57328;52.054;5.294;2023-11-21T03:49:40;14.75;;;6.65;;
69985;SDS011;57328;52.054;5.294;2023-11-21T03:52:07;16.10;;;7.03;;
69985;SDS011;57328;52.054;5.294;2023-11-21T03:54:35;18.35;;;7.05;;
69985;SDS011;57328;52.054;5.294;2023-11-21T03:57:03;17.13;;;7.20;;
69985;SDS011;57328;52.054;5.294;2023-11-21T03:59:30;15.70;;;7.40;;
69985;SDS011;57328;52.054;5.294;2023-11-21T04:01:57;16.92;;;8.13;;
69985;SDS011;57328;52.054;5.294;2023-11-21T04:04:24;16.02;;;7.00;;
69985;SDS011;57328;52.054;5.294;2023-11-21T04:06:51;15.93;;;7.32;;
69985;SDS011;57328;52.054;5.294;2023-11-21T04:09:19;15.18;;;7.80;;
69985;SDS011;57328;52.054;5.294;2023-11-21T04:11:47;18.30;;;7.70;;
69985;SDS011;57328;52.054;5.294;2023-11-21T04:14:14;18.60;;;7.75;;
69985;SDS011;57328;52.054;5.294;2023-11-21T04:16:41;16.58;;;7.90;;
69985;SDS011;57328;52.054;5.294;2023-11-21T04:19:09;17.55;;;7.35;;
69985;SDS011;57328;52.054;5.294;2023-11-21T04:21:37;16.08;;;7.45;;
69985;SDS011;57328;52.054;5.294;2023-11-21T04:24:04;16.45;;;7.55;;
69985;SDS011;57328;52.054;5.294;2023-11-21T04:26:32;17.33;;;7.90;;
69985;SDS011;57328;52.054;5.294;2023-11-21T04:28:59;17.77;;;7.65;;
69985;SDS011;57328;52.054;5.294;2023-11-21T04:31:26;18.02;;;7.78;;
69985;SDS011;57328;52.054;5.294;2023-11-21T04:33:54;17.30;;;6.93;;
69985;SDS011;57328;52.054;5.294;2023-11-21T04:36:21;18.35;;;7.90;;
69985;SDS011;57328;52.054;5.294;2023-11-21T04:38:48;17.10;;;7.50;;
69985;SDS011;57328;52.054;5.294;2023-11-21T04:41:15;16.55;;;6.90;;
69985;SDS011;57328;52.054;5.294;2023-11-21T04:43:44;15.73;;;6.72;;
69985;SDS011;57328;52.054;5.294;2023-11-21T04:46:11;16.70;;;7.30;;
69985;SDS011;57328;52.054;5.294;2023-11-21T04:48:39;16.25;;;7.47;;
69985;SDS011;57328;52.054;5.294;2023-11-21T04:51:06;17.58;;;7.75;;
69985;SDS011;57328;52.054;5.294;2023-11-21T04:53:33;17.15;;;7.90;;
69985;SDS011;57328;52.054;5.294;2023-11-21T04:56:01;15.27;;;7.32;;
69985;SDS011;57328;52.054;5.294;2023-11-21T04:58:29;15.07;;;7.18;;
69985;SDS011;57328;52.054;5.294;2023-11-21T05:00:57;16.63;;;6.97;;
69985;SDS011;57328;52.054;5.294;2023-11-21T05:03:24;17.38;;;7.53;;
69985;SDS011;57328;52.054;5.294;2023-11-21T05:05:52;17.38;;;7.43;;
69985;SDS011;57328;52.054;5.294;2023-11-21T05:08:19;19.02;;;7.63;;
69985;SDS011;57328;52.054;5.294;2023-11-21T05:13:16;18.33;;;7.38;;
69985;SDS011;57328;52.054;5.294;2023-11-21T05:15:44;19.58;;;7.65;;
69985;SDS011;57328;52.054;5.294;2023-11-21T05:18:11;15.25;;;7.72;;
69985;SDS011;57328;52.054;5.294;2023-11-21T05:20:41;19.60;;;7.90;;
69985;SDS011;57328;52.054;5.294;2023-11-21T05:23:09;19.20;;;7.97;;
69985;SDS011;57328;52.054;5.294;2023-11-21T05:25:36;19.92;;;8.15;;
69985;SDS011;57328;52.054;5.294;2023-11-21T05:28:06;18.25;;;7.38;;
69985;SDS011;57328;52.054;5.294;2023-11-21T05:30:33;18.70;;;7.72;;
69985;SDS011;57328;52.054;5.294;2023-11-21T05:33:00;19.17;;;7.20;;
69985;SDS011;57328;52.054;5.294;2023-11-21T05:35:28;17.63;;;7.70;;
69985;SDS011;57328;52.054;5.294;2023-11-21T05:37:55;21.05;;;7.75;;
69985;SDS011;57328;52.054;5.294;2023-11-21T05:40:22;17.13;;;7.85;;
69985;SDS011;57328;52.054;5.294;2023-11-21T05:42:50;17.95;;;7.13;;
69985;SDS011;57328;52.054;5.294;2023-11-21T05:45:18;17.48;;;7.65;;
69985;SDS011;57328;52.054;5.294;2023-11-21T05:47:45;17.63;;;8.07;;
69985;SDS011;57328;52.054;5.294;2023-11-21T05:50:14;21.73;;;8.50;;
69985;SDS011;57328;52.054;5.294;2023-11-21T05:52:42;21.23;;;8.25;;
69985;SDS011;57328;52.054;5.294;2023-11-21T05:55:09;18.30;;;7.60;;
69985;SDS011;57328;52.054;5.294;2023-11-21T05:57:38;21.52;;;8.07;;
69985;SDS011;57328;52.054;5.294;2023-11-21T06:00:05;18.60;;;7.50;;
69985;SDS011;57328;52.054;5.294;2023-11-21T06:02:49;18.08;;;7.40;;
69985;SDS011;57328;52.054;5.294;2023-11-21T06:05:18;21.50;;;8.43;;
69985;SDS011;57328;52.054;5.294;2023-11-21T06:07:45;18.92;;;7.97;;
69985;SDS011;57328;52.054;5.294;2023-11-21T06:10:13;19.13;;;8.25;;
69985;SDS011;57328;52.054;5.294;2023-11-21T06:12:41;20.73;;;7.53;;
69985;SDS011;57328;52.054;5.294;2023-11-21T06:15:10;17.73;;;7.70;;
69985;SDS011;57328;52.054;5.294;2023-11-21T06:17:41;20.33;;;7.82;;
69985;SDS011;57328;52.054;5.294;2023-11-21T06:20:09;24.85;;;8.00;;
69985;SDS011;57328;52.054;5.294;2023-11-21T06:22:40;17.83;;;7.65;;
69985;SDS011;57328;52.054;5.294;2023-11-21T06:25:08;20.40;;;7.80;;
69985;SDS011;57328;52.054;5.294;2023-11-21T06:27:36;20.33;;;7.82;;
69985;SDS011;57328;52.054;5.294;2023-11-21T06:30:04;23.52;;;7.88;;
69985;SDS011;57328;52.054;5.294;2023-11-21T06:35:00;17.40;;;7.43;;
69985;SDS011;57328;52.054;5.294;2023-11-21T06:37:28;22.33;;;7.47;;
69985;SDS011;57328;52.054;5.294;2023-11-21T06:39:55;17.85;;;7.68;;
69985;SDS011;57328;52.054;5.294;2023-11-21T06:42:24;21.33;;;8.15;;
69985;SDS011;57328;52.054;5.294;2023-11-21T06:44:52;17.15;;;7.32;;
69985;SDS011;57328;52.054;5.294;2023-11-21T06:47:20;18.58;;;7.78;;
69985;SDS011;57328;52.054;5.294;2023-11-21T06:49:47;21.88;;;8.15;;
69985;SDS011;57328;52.054;5.294;2023-11-21T06:52:14;18.33;;;7.30;;
69985;SDS011;57328;52.054;5.294;2023-11-21T06:54:42;24.30;;;7.63;;
69985;SDS011;57328;52.054;5.294;2023-11-21T06:57:09;24.40;;;8.13;;
69985;SDS011;57328;52.054;5.294;2023-11-21T06:59:36;21.23;;;8.25;;
69985;SDS011;57328;52.054;5.294;2023-11-21T07:02:03;22.10;;;8.02;;
69985;SDS011;57328;52.054;5.294;2023-11-21T07:04:33;16.00;;;7.38;;
69985;SDS011;57328;52.054;5.294;2023-11-21T07:07:00;21.40;;;8.00;;
69985;SDS011;57328;52.054;5.294;2023-11-21T07:09:28;19.55;;;7.97;;
69985;SDS011;57328;52.054;5.294;2023-11-21T07:11:55;19.60;;;7.95;;
69985;SDS011;57328;52.054;5.294;2023-11-21T07:14:23;21.90;;;6.95;;
69985;SDS011;57328;52.054;5.294;2023-11-21T07:16:50;20.35;;;8.40;;
69985;SDS011;57328;52.054;5.294;2023-11-21T07:19:19;19.27;;;8.05;;
69985;SDS011;57328;52.054;5.294;2023-11-21T07:24:17;17.98;;;7.90;;
69985;SDS011;57328;52.054;5.294;2023-11-21T07:26:45;17.17;;;7.05;;
69985;SDS011;57328;52.054;5.294;2023-11-21T07:29:12;19.67;;;7.53;;
69985;SDS011;57328;52.054;5.294;2023-11-21T07:31:39;19.30;;;7.65;;
69985;SDS011;57328;52.054;5.294;2023-11-21T07:34:07;20.63;;;7.38;;
69985;SDS011;57328;52.054;5.294;2023-11-21T07:36:35;22.30;;;7.60;;
69985;SDS011;57328;52.054;5.294;2023-11-21T07:39:03;21.00;;;8.18;;
69985;SDS011;57328;52.054;5.294;2023-11-21T07:41:30;20.52;;;8.10;;
69985;SDS011;57328;52.054;5.294;2023-11-21T07:43:58;21.58;;;7.50;;
69985;SDS011;57328;52.054;5.294;2023-11-21T07:46:26;22.25;;;7.88;;
69985;SDS011;57328;52.054;5.294;2023-11-21T07:48:54;24.10;;;7.80;;
69985;SDS011;57328;52.054;5.294;2023-11-21T07:51:21;20.80;;;6.70;;
69985;SDS011;57328;52.054;5.294;2023-11-21T07:53:48;23.02;;;7.57;;
69985;SDS011;57328;52.054;5.294;2023-11-21T07:56:16;19.42;;;8.38;;
69985;SDS011;57328;52.054;5.294;2023-11-21T07:58:44;21.25;;;8.52;;
69985;SDS011;57328;52.054;5.294;2023-11-21T08:01:12;19.42;;;7.10;;
69985;SDS011;57328;52.054;5.294;2023-11-21T08:03:39;20.67;;;7.28;;
69985;SDS011;57328;52.054;5.294;2023-11-21T08:06:06;16.00;;;7.47;;
69985;SDS011;57328;52.054;5.294;2023-11-21T08:08:33;19.67;;;7.53;;
69985;SDS011;57328;52.054;5.294;2023-11-21T08:11:01;19.95;;;6.20;;
69985;SDS011;57328;52.054;5.294;2023-11-21T08:13:29;16.85;;;6.35;;
69985;SDS011;57328;52.054;5.294;2023-11-21T08:15:57;16.92;;;6.35;;
69985;SDS011;57328;52.054;5.294;2023-11-21T08:18:30;16.65;;;6.25;;
69985;SDS011;57328;52.054;5.294;2023-11-21T08:20:57;16.73;;;5.85;;
69985;SDS011;57328;52.054;5.294;2023-11-21T08:23:24;16.85;;;5.72;;
69985;SDS011;57328;52.054;5.294;2023-11-21T08:25:54;19.05;;;6.60;;
69985;SDS011;57328;52.054;5.294;2023-11-21T08:28:22;14.68;;;5.78;;
69985;SDS011;57328;52.054;5.294;2023-11-21T08:30:52;14.27;;;5.88;;
69985;SDS011;57328;52.054;5.294;2023-11-21T08:33:20;14.82;;;5.82;;
69985;SDS011;57328;52.054;5.294;2023-11-21T08:35:48;15.50;;;5.60;;
69985;SDS011;57328;52.054;5.294;2023-11-21T08:38:16;14.18;;;5.32;;
69985;SDS011;57328;52.054;5.294;2023-11-21T08:40:44;15.07;;;5.22;;
69985;SDS011;57328;52.054;5.294;2023-11-21T08:43:11;13.05;;;5.05;;
69985;SDS011;57328;52.054;5.294;2023-11-21T08:45:38;12.32;;;4.95;;
69985;SDS011;57328;52.054;5.294;2023-11-21T08:48:05;15.20;;;5.10;;
69985;SDS011;57328;52.054;5.294;2023-11-21T08:50:33;12.90;;;4.80;;
69985;SDS011;57328;52.054;5.294;2023-11-21T08:53:00;18.13;;;4.72;;
69985;SDS011;57328;52.054;5.294;2023-11-21T08:55:27;10.73;;;4.13;;
69985;SDS011;57328;52.054;5.294;2023-11-21T08:57:55;13.85;;;4.30;;
69985;SDS011;57328;52.054;5.294;2023-11-21T09:00:24;14.10;;;4.95;;
69985;SDS011;57328;52.054;5.294;2023-11-21T09:02:51;12.82;;;4.28;;
69985;SDS011;57328;52.054;5.294;2023-11-21T09:05:18;10.63;;;4.00;;
69985;SDS011;57328;52.054;5.294;2023-11-21T09:07:47;12.15;;;4.10;;
69985;SDS011;57328;52.054;5.294;2023-11-21T09:10:15;12.93;;;4.03;;
69985;SDS011;57328;52.054;5.294;2023-11-21T09:12:42;11.43;;;3.85;;
69985;SDS011;57328;52.054;5.294;2023-11-21T09:15:09;13.07;;;3.92;;
69985;SDS011;57328;52.054;5.294;2023-11-21T09:17:37;12.27;;;4.45;;
69985;SDS011;57328;52.054;5.294;2023-11-21T09:22:36;11.23;;;3.97;;
69985;SDS011;57328;52.054;5.294;2023-11-21T09:25:03;9.23;;;3.00;;
69985;SDS011;57328;52.054;5.294;2023-11-21T09:27:32;8.27;;;3.20;;
69985;SDS011;57328;52.054;5.294;2023-11-21T09:29:59;11.60;;;4.00;;
69985;SDS011;57328;52.054;5.294;2023-11-21T09:32:26;12.23;;;3.70;;
69985;SDS011;57328;52.054;5.294;2023-11-21T09:34:53;9.75;;;4.10;;
69985;SDS011;57328;52.054;5.294;2023-11-21T09:37:24;9.38;;;4.00;;
69985;SDS011;57328;52.054;5.294;2023-11-21T09:39:53;12.30;;;4.15;;
69985;SDS011;57328;52.054;5.294;2023-11-21T09:42:32;14.30;;;4.50;;
69985;SDS011;57328;52.054;5.294;2023-11-21T09:47:38;13.55;;;4.68;;
69985;SDS011;57328;52.054;5.294;2023-11-21T09:50:06;12.32;;;4.53;;
69985;SDS011;57328;52.054;5.294;2023-11-21T09:52:39;12.93;;;4.75;;
69985;SDS011;57328;52.054;5.294;2023-11-21T09:55:10;10.80;;;3.65;;
69985;SDS011;57328;52.054;5.294;2023-11-21T09:57:41;12.57;;;4.72;;
69985;SDS011;57328;52.054;5.294;2023-11-21T10:00:09;9.10;;;3.75;;
69985;SDS011;57328;52.054;5.294;2023-11-21T10:02:38;15.48;;;4.97;;
69985;SDS011;57328;52.054;5.294;2023-11-21T10:05:07;14.38;;;5.50;;
69985;SDS011;57328;52.054;5.294;2023-11-21T10:07:38;12.93;;;4.82;;
69985;SDS011;57328;52.054;5.294;2023-11-21T10:10:07;15.23;;;5.63;;
69985;SDS011;57328;52.054;5.294;2023-11-21T10:12:35;12.77;;;4.75;;
69985;SDS011;57328;52.054;5.294;2023-11-21T10:15:06;12.73;;;4.90;;
69985;SDS011;57328;52.054;5.294;2023-11-21T10:17:37;15.50;;;5.70;;
69985;SDS011;57328;52.054;5.294;2023-11-21T10:20:12;20.25;;;5.55;;
69985;SDS011;57328;52.054;5.294;2023-11-21T10:22:40;11.88;;;4.72;;
69985;SDS011;57328;52.054;5.294;2023-11-21T10:25:11;14.18;;;6.20;;
69985;SDS011;57328;52.054;5.294;2023-11-21T10:27:42;12.10;;;4.80;;
69985;SDS011;57328;52.054;5.294;2023-11-21T10:30:10;12.15;;;4.40;;
69985;SDS011;57328;52.054;5.294;2023-11-21T10:32:43;13.38;;;4.60;;
69985;SDS011;57328;52.054;5.294;2023-11-21T10:35:10;15.10;;;5.38;;
69985;SDS011;57328;52.054;5.294;2023-11-21T10:37:41;9.52;;;3.22;;
69985;SDS011;57328;52.054;5.294;2023-11-21T10:40:11;11.05;;;4.43;;
69985;SDS011;57328;52.054;5.294;2023-11-21T10:42:39;10.75;;;4.00;;
69985;SDS011;57328;52.054;5.294;2023-11-21T10:45:07;10.43;;;3.75;;
69985;SDS011;57328;52.054;5.294;2023-11-21T10:47:43;12.95;;;4.07;;
69985;SDS011;57328;52.054;5.294;2023-11-21T10:50:11;8.15;;;2.95;;
69985;SDS011;57328;52.054;5.294;2023-11-21T10:52:41;7.88;;;2.80;;
69985;SDS011;57328;52.054;5.294;2023-11-21T10:55:19;9.18;;;3.30;;
69985;SDS011;57328;52.054;5.294;2023-11-21T10:57:48;7.80;;;2.60;;
69985;SDS011;57328;52.054;5.294;2023-11-21T11:00:17;10.25;;;3.03;;
69985;SDS011;57328;52.054;5.294;2023-11-21T11:02:49;10.05;;;3.25;;
69985;SDS011;57328;52.054;5.294;2023-11-21T11:05:19;9.73;;;3.58;;
69985;SDS011;57328;52.054;5.294;2023-11-21T11:07:48;10.63;;;3.83;;
69985;SDS011;57328;52.054;5.294;2023-11-21T11:10:21;9.13;;;3.78;;
69985;SDS011;57328;52.054;5.294;2023-11-21T11:12:53;11.18;;;3.78;;
69985;SDS011;57328;52.054;5.294;2023-11-21T11:15:21;12.00;;;4.43;;
69985;SDS011;57328;52.054;5.294;2023-11-21T11:17:49;12.02;;;5.32;;
69985;SDS011;57328;52.054;5.294;2023-11-21T11:20:17;12.15;;;4.55;;
69985;SDS011;57328;52.054;5.294;2023-11-21T11:22:58;13.88;;;4.90;;
69985;SDS011;57328;52.054;5.294;2023-11-21T11:28:14;11.77;;;4.40;;
69985;SDS011;57328;52.054;5.294;2023-11-21T11:35:58;10.20;;;3.22;;
69985;SDS011;57328;52.054;5.294;2023-11-21T11:38:27;15.10;;;5.05;;
69985;SDS011;57328;52.054;5.294;2023-11-21T11:41:00;11.65;;;4.40;;
69985;SDS011;57328;52.054;5.294;2023-11-21T11:43:29;14.82;;;5.30;;
69985;SDS011;57328;52.054;5.294;2023-11-21T11:45:59;13.93;;;4.93;;
69985;SDS011;57328;52.054;5.294;2023-11-21T11:48:26;11.98;;;4.38;;
69985;SDS011;57328;52.054;5.294;2023-11-21T11:51:06;11.43;;;5.10;;
69985;SDS011;57328;52.054;5.294;2023-11-21T11:53:39;16.48;;;5.53;;
69985;SDS011;57328;52.054;5.294;2023-11-21T11:58:49;15.48;;;6.00;;
69985;SDS011;57328;52.054;5.294;2023-11-21T12:01:21;15.10;;;6.05;;
69985;SDS011;57328;52.054;5.294;2023-11-21T12:06:34;14.45;;;5.68;;
69985;SDS011;57328;52.054;5.294;2023-11-21T12:09:02;12.57;;;4.32;;
69985;SDS011;57328;52.054;5.294;2023-11-21T12:11:32;12.50;;;4.65;;
69985;SDS011;57328;52.054;5.294;2023-11-21T12:14:01;13.82;;;5.10;;
69985;SDS011;57328;52.054;5.294;2023-11-21T12:16:32;13.50;;;5.60;;
69985;SDS011;57328;52.054;5.294;2023-11-21T12:18:59;9.50;;;4.20;;
69985;SDS011;57328;52.054;5.294;2023-11-21T12:21:27;12.02;;;5.40;;
69985;SDS011;57328;52.054;5.294;2023-11-21T12:23:55;16.58;;;6.13;;
69985;SDS011;57328;52.054;5.294;2023-11-21T12:26:23;11.98;;;4.80;;
69985;SDS011;57328;52.054;5.294;2023-11-21T12:28:53;12.98;;;5.03;;
69985;SDS011;57328;52.054;5.294;2023-11-21T12:31:25;13.75;;;5.65;;
69985;SDS011;57328;52.054;5.294;2023-11-21T12:33:53;14.18;;;4.68;;
69985;SDS011;57328;52.054;5.294;2023-11-21T12:36:21;14.38;;;4.85;;
69985;SDS011;57328;52.054;5.294;2023-11-21T12:38:48;15.20;;;6.10;;
69985;SDS011;57328;52.054;5.294;2023-11-21T12:41:16;13.30;;;5.13;;
69985;SDS011;57328;52.054;5.294;2023-11-21T12:43:43;15.18;;;6.38;;
69985;SDS011;57328;52.054;5.294;2023-11-21T12:46:11;14.50;;;6.15;;
69985;SDS011;57328;52.054;5.294;2023-11-21T12:48:43;13.98;;;5.78;;
69985;SDS011;57328;52.054;5.294;2023-11-21T12:51:12;16.25;;;6.40;;
69985;SDS011;57328;52.054;5.294;2023-11-21T12:53:40;16.80;;;6.65;;
69985;SDS011;57328;52.054;5.294;2023-11-21T13:01:06;13.10;;;5.82;;
69985;SDS011;57328;52.054;5.294;2023-11-21T13:03:38;20.27;;;7.80;;
69985;SDS011;57328;52.054;5.294;2023-11-21T13:06:07;16.02;;;6.57;;
69985;SDS011;57328;52.054;5.294;2023-11-21T13:08:34;16.38;;;6.63;;
69985;SDS011;57328;52.054;5.294;2023-11-21T13:11:01;19.80;;;6.85;;
69985;SDS011;57328;52.054;5.294;2023-11-21T13:13:29;18.75;;;7.20;;
69985;SDS011;57328;52.054;5.294;2023-11-21T13:15:59;18.92;;;7.38;;
69985;SDS011;57328;52.054;5.294;2023-11-21T13:18:27;20.80;;;7.97;;
69985;SDS011;57328;52.054;5.294;2023-11-21T13:20:57;16.83;;;5.82;;
69985;SDS011;57328;52.054;5.294;2023-11-21T13:23:25;14.57;;;5.53;;
69985;SDS011;57328;52.054;5.294;2023-11-21T13:25:53;21.75;;;7.60;;
69985;SDS011;57328;52.054;5.294;2023-11-21T13:28:31;19.10;;;7.25;;
69985;SDS011;57328;52.054;5.294;2023-11-21T13:31:00;20.35;;;7.25;;
69985;SDS011;57328;52.054;5.294;2023-11-21T13:33:36;18.73;;;6.95;;
69985;SDS011;57328;52.054;5.294;2023-11-21T13:36:05;19.75;;;8.07;;
69985;SDS011;57328;52.054;5.294;2023-11-21T13:38:35;8.85;;;4.07;;
69985;SDS011;57328;52.054;5.294;2023-11-21T13:41:04;15.50;;;5.90;;
69985;SDS011;57328;52.054;5.294;2023-11-21T13:43:33;11.35;;;4.95;;
69985;SDS011;57328;52.054;5.294;2023-11-21T13:46:03;13.75;;;5.72;;
69985;SDS011;57328;52.054;5.294;2023-11-21T13:48:40;12.95;;;5.47;;
69985;SDS011;57328;52.054;5.294;2023-11-21T13:51:09;13.68;;;5.00;;
69985;SDS011;57328;52.054;5.294;2023-11-21T13:53:44;12.38;;;5.20;;
69985;SDS011;57328;52.054;5.294;2023-11-21T13:56:14;11.80;;;4.30;;
69985;SDS011;57328;52.054;5.294;2023-11-21T13:58:45;9.60;;;3.22;;
69985;SDS011;57328;52.054;5.294;2023-11-21T14:01:22;8.95;;;3.05;;
69985;SDS011;57328;52.054;5.294;2023-11-21T14:03:59;5.75;;;2.15;;
69985;SDS011;57328;52.054;5.294;2023-11-21T14:06:43;6.13;;;2.20;;
69985;SDS011;57328;52.054;5.294;2023-11-21T14:09:16;4.90;;;1.60;;
69985;SDS011;57328;52.054;5.294;2023-11-21T14:11:55;5.60;;;2.10;;
69985;SDS011;57328;52.054;5.294;2023-11-21T14:14:25;5.78;;;2.10;;
69985;SDS011;57328;52.054;5.294;2023-11-21T14:16:54;10.13;;;3.08;;
69985;SDS011;57328;52.054;5.294;2023-11-21T14:19:25;7.90;;;2.63;;
69985;SDS011;57328;52.054;5.294;2023-11-21T14:21:59;10.68;;;3.45;;
69985;SDS011;57328;52.054;5.294;2023-11-21T14:24:27;7.63;;;2.60;;
69985;SDS011;57328;52.054;5.294;2023-11-21T14:26:55;11.85;;;4.30;;
69985;SDS011;57328;52.054;5.294;2023-11-21T14:29:23;15.77;;;3.38;;
69985;SDS011;57328;52.054;5.294;2023-11-21T14:31:50;14.20;;;6.25;;
69985;SDS011;57328;52.054;5.294;2023-11-21T14:34:20;14.60;;;5.25;;
69985;SDS011;57328;52.054;5.294;2023-11-21T14:39:16;10.70;;;4.22;;
69985;SDS011;57328;52.054;5.294;2023-11-21T14:41:50;11.23;;;4.13;;
69985;SDS011;57328;52.054;5.294;2023-11-21T14:44:19;13.93;;;5.68;;
69985;SDS011;57328;52.054;5.294;2023-11-21T14:46:49;15.98;;;6.53;;
69985;SDS011;57328;52.054;5.294;2023-11-21T14:49:18;16.67;;;5.68;;
69985;SDS011;57328;52.054;5.294;2023-11-21T14:51:46;14.07;;;6.00;;
69985;SDS011;57328;52.054;5.294;2023-11-21T14:54:36;16.17;;;6.53;;
69985;SDS011;57328;52.054;5.294;2023-11-21T14:57:08;17.98;;;6.50;;
69985;SDS011;57328;52.054;5.294;2023-11-21T14:59:44;14.70;;;5.95;;
69985;SDS011;57328;52.054;5.294;2023-11-21T15:02:18;17.27;;;6.80;;
69985;SDS011;57328;52.054;5.294;2023-11-21T15:05:09;17.25;;;6.53;;
69985;SDS011;57328;52.054;5.294;2023-11-21T15:07:43;11.77;;;5.03;;
69985;SDS011;57328;52.054;5.294;2023-11-21T15:10:12;17.17;;;6.38;;
69985;SDS011;57328;52.054;5.294;2023-11-21T15:12:42;11.95;;;4.65;;
69985;SDS011;57328;52.054;5.294;2023-11-21T15:15:10;20.50;;;8.35;;
69985;SDS011;57328;52.054;5.294;2023-11-21T15:17:40;15.88;;;6.13;;
69985;SDS011;57328;52.054;5.294;2023-11-21T15:20:10;18.83;;;7.80;;
69985;SDS011;57328;52.054;5.294;2023-11-21T15:22:45;20.77;;;8.45;;
69985;SDS011;57328;52.054;5.294;2023-11-21T15:25:12;20.08;;;8.43;;
69985;SDS011;57328;52.054;5.294;2023-11-21T15:27:40;23.77;;;8.90;;